sensor_id;sensor_type;location;lat;lon;timestamp;temperature;humidity
51035;DHT22;37062;52.546;13.230;2024-02-16T00:01:45;13.00;99.90
51035;DHT22;37062;52.546;13.230;2024-02-16T00:04:14;13.00;99.90
51035;DHT22;37062;52.546;13.230;2024-02-16T00:06:42;13.00;99.90
51035;DHT22;37062;52.546;13.230;2024-02-16T00:09:10;13.00;99.90
51035;DHT22;37062;52.546;13.230;2024-02-16T00:11:39;13.00;99.90
51035;DHT22;37062;52.546;13.230;2024-02-16T00:14:07;13.00;99.90
51035;DHT22;37062;52.546;13.230;2024-02-16T00:16:36;12.90;99.90
51035;DHT22;37062;52.546;13.230;2024-02-16T00:19:06;12.90;99.90
51035;DHT22;37062;52.546;13.230;2024-02-16T00:21:34;12.80;99.90
51035;DHT22;37062;52.546;13.230;2024-02-16T00:24:11;12.70;99.90
51035;DHT22;37062;52.546;13.230;2024-02-16T00:26:48;12.60;99.90
51035;DHT22;37062;52.546;13.230;2024-02-16T00:29:20;12.50;99.90
51035;DHT22;37062;52.546;13.230;2024-02-16T00:31:48;12.40;99.90
51035;DHT22;37062;52.546;13.230;2024-02-16T00:34:18;12.30;99.90
51035;DHT22;37062;52.546;13.230;2024-02-16T00:36:46;12.40;99.90
51035;DHT22;37062;52.546;13.230;2024-02-16T00:39:14;12.50;99.90
51035;DHT22;37062;52.546;13.230;2024-02-16T00:41:43;12.50;99.90
51035;DHT22;37062;52.546;13.230;2024-02-16T00:44:13;12.50;99.90
51035;DHT22;37062;52.546;13.230;2024-02-16T00:46:41;12.50;99.90
51035;DHT22;37062;52.546;13.230;2024-02-16T00:49:09;12.50;99.90
51035;DHT22;37062;52.546;13.230;2024-02-16T00:51:41;12.50;99.90
51035;DHT22;37062;52.546;13.230;2024-02-16T00:54:09;12.50;99.90
51035;DHT22;37062;52.546;13.230;2024-02-16T00:56:37;12.50;99.90
51035;DHT22;37062;52.546;13.230;2024-02-16T00:59:09;12.60;99.90
51035;DHT22;37062;52.546;13.230;2024-02-16T01:01:37;12.50;99.90
51035;DHT22;37062;52.546;13.230;2024-02-16T01:04:05;12.50;99.90
51035;DHT22;37062;52.546;13.230;2024-02-16T01:06:35;12.50;99.90
51035;DHT22;37062;52.546;13.230;2024-02-16T01:09:05;12.40;99.90
51035;DHT22;37062;52.546;13.230;2024-02-16T01:11:36;12.30;99.90
51035;DHT22;37062;52.546;13.230;2024-02-16T01:14:07;12.30;99.90
51035;DHT22;37062;52.546;13.230;2024-02-16T01:16:35;12.30;99.90
51035;DHT22;37062;52.546;13.230;2024-02-16T01:19:03;12.40;99.90
51035;DHT22;37062;52.546;13.230;2024-02-16T01:21:33;12.50;99.90
51035;DHT22;37062;52.546;13.230;2024-02-16T01:24:01;12.50;99.90
51035;DHT22;37062;52.546;13.230;2024-02-16T01:26:31;12.50;99.90
51035;DHT22;37062;52.546;13.230;2024-02-16T01:29:00;12.50;99.90
51035;DHT22;37062;52.546;13.230;2024-02-16T01:31:29;12.40;99.90
51035;DHT22;37062;52.546;13.230;2024-02-16T01:33:57;12.30;99.90
51035;DHT22;37062;52.546;13.230;2024-02-16T01:36:26;12.30;99.90
51035;DHT22;37062;52.546;13.230;2024-02-16T01:38:54;12.30;99.90
51035;DHT22;37062;52.546;13.230;2024-02-16T01:41:23;12.30;99.90
51035;DHT22;37062;52.546;13.230;2024-02-16T01:43:54;12.20;99.90
51035;DHT22;37062;52.546;13.230;2024-02-16T01:46:23;12.20;99.90
51035;DHT22;37062;52.546;13.230;2024-02-16T01:48:51;12.20;99.90
51035;DHT22;37062;52.546;13.230;2024-02-16T01:51:23;12.10;99.90
51035;DHT22;37062;52.546;13.230;2024-02-16T01:53:53;12.10;99.90
51035;DHT22;37062;52.546;13.230;2024-02-16T01:56:22;12.10;99.90
51035;DHT22;37062;52.546;13.230;2024-02-16T01:58:55;12.10;99.90
51035;DHT22;37062;52.546;13.230;2024-02-16T02:01:23;12.10;99.90
51035;DHT22;37062;52.546;13.230;2024-02-16T02:03:52;12.10;99.90
51035;DHT22;37062;52.546;13.230;2024-02-16T02:06:21;12.00;99.90
51035;DHT22;37062;52.546;13.230;2024-02-16T02:08:50;12.00;99.90
51035;DHT22;37062;52.546;13.230;2024-02-16T02:11:18;12.10;99.90
51035;DHT22;37062;52.546;13.230;2024-02-16T02:13:46;12.00;99.90
51035;DHT22;37062;52.546;13.230;2024-02-16T02:16:17;11.90;99.90
51035;DHT22;37062;52.546;13.230;2024-02-16T02:18:46;11.90;99.90
51035;DHT22;37062;52.546;13.230;2024-02-16T02:21:15;11.80;99.90
51035;DHT22;37062;52.546;13.230;2024-02-16T02:23:46;11.80;99.90
51035;DHT22;37062;52.546;13.230;2024-02-16T02:26:15;11.80;99.90
51035;DHT22;37062;52.546;13.230;2024-02-16T02:28:44;11.80;99.90
51035;DHT22;37062;52.546;13.230;2024-02-16T02:31:13;11.90;99.90
51035;DHT22;37062;52.546;13.230;2024-02-16T02:33:41;11.90;99.90
51035;DHT22;37062;52.546;13.230;2024-02-16T02:36:10;11.90;99.90
51035;DHT22;37062;52.546;13.230;2024-02-16T02:38:39;11.90;99.90
51035;DHT22;37062;52.546;13.230;2024-02-16T02:41:09;11.90;99.90
51035;DHT22;37062;52.546;13.230;2024-02-16T02:43:37;11.90;99.90
51035;DHT22;37062;52.546;13.230;2024-02-16T02:46:05;11.90;99.90
51035;DHT22;37062;52.546;13.230;2024-02-16T02:48:33;11.90;99.90
51035;DHT22;37062;52.546;13.230;2024-02-16T02:51:02;11.90;99.90
51035;DHT22;37062;52.546;13.230;2024-02-16T02:53:30;11.90;99.90
51035;DHT22;37062;52.546;13.230;2024-02-16T02:55:59;11.90;99.90
51035;DHT22;37062;52.546;13.230;2024-02-16T02:58:29;11.90;99.90
51035;DHT22;37062;52.546;13.230;2024-02-16T03:00:57;12.00;99.90
51035;DHT22;37062;52.546;13.230;2024-02-16T03:03:26;12.00;99.90
51035;DHT22;37062;52.546;13.230;2024-02-16T03:05:54;12.00;99.90
51035;DHT22;37062;52.546;13.230;2024-02-16T03:08:22;12.10;99.90
51035;DHT22;37062;52.546;13.230;2024-02-16T03:10:50;12.10;99.90
51035;DHT22;37062;52.546;13.230;2024-02-16T03:13:19;12.20;99.90
51035;DHT22;37062;52.546;13.230;2024-02-16T03:15:48;12.20;99.90
51035;DHT22;37062;52.546;13.230;2024-02-16T03:18:17;12.20;99.90
51035;DHT22;37062;52.546;13.230;2024-02-16T03:20:45;12.20;99.90
51035;DHT22;37062;52.546;13.230;2024-02-16T03:23:17;12.10;99.90
51035;DHT22;37062;52.546;13.230;2024-02-16T03:25:45;12.10;99.90
51035;DHT22;37062;52.546;13.230;2024-02-16T03:28:14;12.00;99.90
51035;DHT22;37062;52.546;13.230;2024-02-16T03:30:44;11.90;99.90
51035;DHT22;37062;52.546;13.230;2024-02-16T03:33:13;11.90;99.90
51035;DHT22;37062;52.546;13.230;2024-02-16T03:35:42;11.80;99.90
51035;DHT22;37062;52.546;13.230;2024-02-16T03:38:10;11.80;99.90
51035;DHT22;37062;52.546;13.230;2024-02-16T03:40:40;11.80;99.90
51035;DHT22;37062;52.546;13.230;2024-02-16T03:43:08;11.80;99.90
51035;DHT22;37062;52.546;13.230;2024-02-16T03:45:36;11.90;99.90
51035;DHT22;37062;52.546;13.230;2024-02-16T03:48:05;11.90;99.90
51035;DHT22;37062;52.546;13.230;2024-02-16T03:50:35;11.80;99.90
51035;DHT22;37062;52.546;13.230;2024-02-16T03:53:03;11.70;99.90
51035;DHT22;37062;52.546;13.230;2024-02-16T03:55:32;11.70;99.90
51035;DHT22;37062;52.546;13.230;2024-02-16T03:58:03;11.60;99.90
51035;DHT22;37062;52.546;13.230;2024-02-16T04:00:32;11.60;99.90
51035;DHT22;37062;52.546;13.230;2024-02-16T04:03:01;11.60;99.90
51035;DHT22;37062;52.546;13.230;2024-02-16T04:05:31;11.70;99.90
51035;DHT22;37062;52.546;13.230;2024-02-16T04:08:03;11.70;99.90
51035;DHT22;37062;52.546;13.230;2024-02-16T04:10:33;11.80;99.90
51035;DHT22;37062;52.546;13.230;2024-02-16T04:13:02;11.80;99.90
51035;DHT22;37062;52.546;13.230;2024-02-16T04:15:31;11.80;99.90
51035;DHT22;37062;52.546;13.230;2024-02-16T04:17:59;11.80;99.90
51035;DHT22;37062;52.546;13.230;2024-02-16T04:20:27;11.80;99.90
51035;DHT22;37062;52.546;13.230;2024-02-16T04:22:56;11.70;99.90
51035;DHT22;37062;52.546;13.230;2024-02-16T04:25:25;11.70;99.90
51035;DHT22;37062;52.546;13.230;2024-02-16T04:27:53;11.60;99.90
51035;DHT22;37062;52.546;13.230;2024-02-16T04:30:22;11.70;99.90
51035;DHT22;37062;52.546;13.230;2024-02-16T04:32:50;11.70;99.90
51035;DHT22;37062;52.546;13.230;2024-02-16T04:35:19;11.70;99.90
51035;DHT22;37062;52.546;13.230;2024-02-16T04:37:47;11.60;99.90
51035;DHT22;37062;52.546;13.230;2024-02-16T04:40:15;11.70;99.90
51035;DHT22;37062;52.546;13.230;2024-02-16T04:42:45;11.70;99.90
51035;DHT22;37062;52.546;13.230;2024-02-16T04:45:13;11.70;99.90
51035;DHT22;37062;52.546;13.230;2024-02-16T04:47:42;11.70;99.90
51035;DHT22;37062;52.546;13.230;2024-02-16T04:50:10;11.70;99.90
51035;DHT22;37062;52.546;13.230;2024-02-16T04:52:38;11.80;99.90
51035;DHT22;37062;52.546;13.230;2024-02-16T04:55:08;11.80;99.90
51035;DHT22;37062;52.546;13.230;2024-02-16T04:57:36;11.80;99.90
51035;DHT22;37062;52.546;13.230;2024-02-16T05:00:07;11.70;99.90
51035;DHT22;37062;52.546;13.230;2024-02-16T05:02:37;11.70;99.90
51035;DHT22;37062;52.546;13.230;2024-02-16T05:05:05;11.70;99.90
51035;DHT22;37062;52.546;13.230;2024-02-16T05:07:33;11.60;99.90
51035;DHT22;37062;52.546;13.230;2024-02-16T05:10:03;11.60;99.90
51035;DHT22;37062;52.546;13.230;2024-02-16T05:12:32;11.50;99.90
51035;DHT22;37062;52.546;13.230;2024-02-16T05:15:01;11.50;99.90
51035;DHT22;37062;52.546;13.230;2024-02-16T05:17:32;11.60;99.90
51035;DHT22;37062;52.546;13.230;2024-02-16T05:20:00;11.60;99.90
51035;DHT22;37062;52.546;13.230;2024-02-16T05:22:28;11.60;99.90
51035;DHT22;37062;52.546;13.230;2024-02-16T05:24:57;11.60;99.90
51035;DHT22;37062;52.546;13.230;2024-02-16T05:27:25;11.60;99.90
51035;DHT22;37062;52.546;13.230;2024-02-16T05:29:53;11.60;99.90
51035;DHT22;37062;52.546;13.230;2024-02-16T05:32:21;11.50;99.90
51035;DHT22;37062;52.546;13.230;2024-02-16T05:34:51;11.50;99.90
51035;DHT22;37062;52.546;13.230;2024-02-16T05:37:21;11.50;99.90
51035;DHT22;37062;52.546;13.230;2024-02-16T05:39:50;11.50;99.90
51035;DHT22;37062;52.546;13.230;2024-02-16T05:42:24;11.50;99.90
51035;DHT22;37062;52.546;13.230;2024-02-16T05:44:53;11.50;99.90
51035;DHT22;37062;52.546;13.230;2024-02-16T05:47:21;11.50;99.90
51035;DHT22;37062;52.546;13.230;2024-02-16T05:49:51;11.50;99.90
51035;DHT22;37062;52.546;13.230;2024-02-16T05:52:19;11.60;99.90
51035;DHT22;37062;52.546;13.230;2024-02-16T05:54:48;11.50;99.90
51035;DHT22;37062;52.546;13.230;2024-02-16T05:57:17;11.50;99.90
51035;DHT22;37062;52.546;13.230;2024-02-16T05:59:45;11.50;99.90
51035;DHT22;37062;52.546;13.230;2024-02-16T06:02:16;11.40;99.90
51035;DHT22;37062;52.546;13.230;2024-02-16T06:04:44;11.30;99.90
51035;DHT22;37062;52.546;13.230;2024-02-16T06:07:14;11.30;99.90
51035;DHT22;37062;52.546;13.230;2024-02-16T06:09:43;11.40;99.90
51035;DHT22;37062;52.546;13.230;2024-02-16T06:12:11;11.40;99.90
51035;DHT22;37062;52.546;13.230;2024-02-16T06:14:40;11.40;99.90
51035;DHT22;37062;52.546;13.230;2024-02-16T06:17:08;11.30;99.90
51035;DHT22;37062;52.546;13.230;2024-02-16T06:19:36;11.30;99.90
51035;DHT22;37062;52.546;13.230;2024-02-16T06:22:05;11.30;99.90
51035;DHT22;37062;52.546;13.230;2024-02-16T06:24:36;11.20;99.90
51035;DHT22;37062;52.546;13.230;2024-02-16T06:27:05;11.30;99.90
51035;DHT22;37062;52.546;13.230;2024-02-16T06:29:35;11.30;99.90
51035;DHT22;37062;52.546;13.230;2024-02-16T06:32:03;11.50;99.90
51035;DHT22;37062;52.546;13.230;2024-02-16T06:34:31;11.60;99.90
51035;DHT22;37062;52.546;13.230;2024-02-16T06:37:00;11.60;99.90
51035;DHT22;37062;52.546;13.230;2024-02-16T06:39:28;11.60;99.90
51035;DHT22;37062;52.546;13.230;2024-02-16T06:41:59;11.60;99.90
51035;DHT22;37062;52.546;13.230;2024-02-16T06:44:29;11.70;99.90
51035;DHT22;37062;52.546;13.230;2024-02-16T06:46:58;11.70;99.90
51035;DHT22;37062;52.546;13.230;2024-02-16T06:49:26;11.70;99.90
51035;DHT22;37062;52.546;13.230;2024-02-16T06:51:55;11.80;99.90
51035;DHT22;37062;52.546;13.230;2024-02-16T06:54:23;11.80;99.90
51035;DHT22;37062;52.546;13.230;2024-02-16T06:56:53;11.70;99.90
51035;DHT22;37062;52.546;13.230;2024-02-16T06:59:23;11.60;99.90
51035;DHT22;37062;52.546;13.230;2024-02-16T07:01:52;11.50;99.90
51035;DHT22;37062;52.546;13.230;2024-02-16T07:04:21;11.50;99.90
51035;DHT22;37062;52.546;13.230;2024-02-16T07:06:49;11.60;99.90
51035;DHT22;37062;52.546;13.230;2024-02-16T07:09:17;11.70;99.90
51035;DHT22;37062;52.546;13.230;2024-02-16T07:11:46;11.80;99.90
51035;DHT22;37062;52.546;13.230;2024-02-16T07:14:20;11.90;99.90
51035;DHT22;37062;52.546;13.230;2024-02-16T07:16:49;12.00;99.90
51035;DHT22;37062;52.546;13.230;2024-02-16T07:19:18;12.20;99.90
51035;DHT22;37062;52.546;13.230;2024-02-16T07:21:46;12.30;99.90
51035;DHT22;37062;52.546;13.230;2024-02-16T07:24:15;12.30;99.90
51035;DHT22;37062;52.546;13.230;2024-02-16T07:26:45;12.40;99.90
51035;DHT22;37062;52.546;13.230;2024-02-16T07:29:14;12.40;99.90
51035;DHT22;37062;52.546;13.230;2024-02-16T07:31:43;12.30;99.90
51035;DHT22;37062;52.546;13.230;2024-02-16T07:34:13;12.40;99.90
51035;DHT22;37062;52.546;13.230;2024-02-16T07:36:41;12.50;99.90
51035;DHT22;37062;52.546;13.230;2024-02-16T07:39:10;12.50;99.90
51035;DHT22;37062;52.546;13.230;2024-02-16T07:41:39;12.70;99.90
51035;DHT22;37062;52.546;13.230;2024-02-16T07:44:07;13.10;99.90
51035;DHT22;37062;52.546;13.230;2024-02-16T07:46:40;13.60;99.90
51035;DHT22;37062;52.546;13.230;2024-02-16T07:49:08;13.90;99.90
51035;DHT22;37062;52.546;13.230;2024-02-16T07:51:39;14.40;99.90
51035;DHT22;37062;52.546;13.230;2024-02-16T07:54:08;14.90;99.90
51035;DHT22;37062;52.546;13.230;2024-02-16T07:56:36;15.60;99.90
51035;DHT22;37062;52.546;13.230;2024-02-16T07:59:04;15.80;99.90
51035;DHT22;37062;52.546;13.230;2024-02-16T08:01:33;16.10;99.90
51035;DHT22;37062;52.546;13.230;2024-02-16T08:04:01;16.40;99.90
51035;DHT22;37062;52.546;13.230;2024-02-16T08:06:32;16.40;99.90
51035;DHT22;37062;52.546;13.230;2024-02-16T08:09:03;16.50;99.90
51035;DHT22;37062;52.546;13.230;2024-02-16T08:11:33;16.80;99.90
51035;DHT22;37062;52.546;13.230;2024-02-16T08:14:01;17.10;99.90
51035;DHT22;37062;52.546;13.230;2024-02-16T08:16:30;17.20;99.90
51035;DHT22;37062;52.546;13.230;2024-02-16T08:18:58;17.10;99.90
51035;DHT22;37062;52.546;13.230;2024-02-16T08:21:27;16.90;99.90
51035;DHT22;37062;52.546;13.230;2024-02-16T08:23:55;16.80;99.90
51035;DHT22;37062;52.546;13.230;2024-02-16T08:26:25;16.70;99.90
51035;DHT22;37062;52.546;13.230;2024-02-16T08:28:53;16.90;99.90
51035;DHT22;37062;52.546;13.230;2024-02-16T08:31:21;16.80;99.90
51035;DHT22;37062;52.546;13.230;2024-02-16T08:33:49;16.70;99.90
51035;DHT22;37062;52.546;13.230;2024-02-16T08:36:18;16.50;99.90
51035;DHT22;37062;52.546;13.230;2024-02-16T08:38:48;16.60;99.90
51035;DHT22;37062;52.546;13.230;2024-02-16T08:41:16;16.60;99.90
51035;DHT22;37062;52.546;13.230;2024-02-16T08:43:46;16.40;99.90
51035;DHT22;37062;52.546;13.230;2024-02-16T08:46:14;16.30;99.90
51035;DHT22;37062;52.546;13.230;2024-02-16T08:48:44;16.00;99.90
51035;DHT22;37062;52.546;13.230;2024-02-16T08:51:12;15.90;99.90
51035;DHT22;37062;52.546;13.230;2024-02-16T08:53:41;15.90;99.90
51035;DHT22;37062;52.546;13.230;2024-02-16T08:56:09;15.80;99.90
51035;DHT22;37062;52.546;13.230;2024-02-16T08:58:38;15.60;99.90
51035;DHT22;37062;52.546;13.230;2024-02-16T09:01:08;15.50;99.90
51035;DHT22;37062;52.546;13.230;2024-02-16T09:03:36;15.60;99.90
51035;DHT22;37062;52.546;13.230;2024-02-16T09:06:07;15.60;99.90
51035;DHT22;37062;52.546;13.230;2024-02-16T09:08:35;15.60;99.90
51035;DHT22;37062;52.546;13.230;2024-02-16T09:11:04;15.70;99.90
51035;DHT22;37062;52.546;13.230;2024-02-16T09:13:33;15.70;99.90
51035;DHT22;37062;52.546;13.230;2024-02-16T09:16:09;15.80;99.90
51035;DHT22;37062;52.546;13.230;2024-02-16T09:18:37;15.90;99.90
51035;DHT22;37062;52.546;13.230;2024-02-16T09:21:06;16.00;99.90
51035;DHT22;37062;52.546;13.230;2024-02-16T09:23:35;16.10;99.90
51035;DHT22;37062;52.546;13.230;2024-02-16T09:26:04;16.20;99.90
51035;DHT22;37062;52.546;13.230;2024-02-16T09:28:32;16.20;99.90
51035;DHT22;37062;52.546;13.230;2024-02-16T09:31:00;16.20;99.90
51035;DHT22;37062;52.546;13.230;2024-02-16T09:33:30;16.10;99.90
51035;DHT22;37062;52.546;13.230;2024-02-16T09:35:59;16.20;99.90
51035;DHT22;37062;52.546;13.230;2024-02-16T09:38:27;16.40;99.90
51035;DHT22;37062;52.546;13.230;2024-02-16T09:40:55;16.60;99.90
51035;DHT22;37062;52.546;13.230;2024-02-16T09:43:28;16.60;99.90
51035;DHT22;37062;52.546;13.230;2024-02-16T09:45:57;16.60;99.90
51035;DHT22;37062;52.546;13.230;2024-02-16T09:48:27;16.60;99.90
51035;DHT22;37062;52.546;13.230;2024-02-16T09:50:58;16.60;99.90
51035;DHT22;37062;52.546;13.230;2024-02-16T09:53:28;16.70;99.90
51035;DHT22;37062;52.546;13.230;2024-02-16T09:55:56;16.70;99.90
51035;DHT22;37062;52.546;13.230;2024-02-16T09:58:25;16.60;99.90
51035;DHT22;37062;52.546;13.230;2024-02-16T10:00:54;16.70;99.90
51035;DHT22;37062;52.546;13.230;2024-02-16T10:03:24;16.70;99.90
51035;DHT22;37062;52.546;13.230;2024-02-16T10:06:05;16.70;99.90
51035;DHT22;37062;52.546;13.230;2024-02-16T10:08:46;16.70;99.90
51035;DHT22;37062;52.546;13.230;2024-02-16T10:11:15;16.60;99.90
51035;DHT22;37062;52.546;13.230;2024-02-16T10:13:56;16.50;99.90
51035;DHT22;37062;52.546;13.230;2024-02-16T10:16:26;16.60;99.90
51035;DHT22;37062;52.546;13.230;2024-02-16T10:18:57;16.50;99.90
51035;DHT22;37062;52.546;13.230;2024-02-16T10:21:33;16.50;99.90
51035;DHT22;37062;52.546;13.230;2024-02-16T10:24:04;16.50;99.90
51035;DHT22;37062;52.546;13.230;2024-02-16T10:26:35;16.40;99.90
51035;DHT22;37062;52.546;13.230;2024-02-16T10:29:05;16.50;99.90
51035;DHT22;37062;52.546;13.230;2024-02-16T10:31:34;16.60;99.90
51035;DHT22;37062;52.546;13.230;2024-02-16T10:34:03;16.60;99.90
51035;DHT22;37062;52.546;13.230;2024-02-16T10:36:35;16.70;99.90
51035;DHT22;37062;52.546;13.230;2024-02-16T10:39:06;16.70;99.90
51035;DHT22;37062;52.546;13.230;2024-02-16T10:41:40;16.70;99.90
51035;DHT22;37062;52.546;13.230;2024-02-16T10:44:08;16.80;99.90
51035;DHT22;37062;52.546;13.230;2024-02-16T10:46:37;16.80;99.90
51035;DHT22;37062;52.546;13.230;2024-02-16T10:49:05;16.70;99.90
51035;DHT22;37062;52.546;13.230;2024-02-16T10:51:39;16.60;99.90
51035;DHT22;37062;52.546;13.230;2024-02-16T10:54:08;16.40;99.90
51035;DHT22;37062;52.546;13.230;2024-02-16T10:56:39;16.50;99.90
51035;DHT22;37062;52.546;13.230;2024-02-16T10:59:09;16.60;99.90
51035;DHT22;37062;52.546;13.230;2024-02-16T11:01:38;16.60;99.90
51035;DHT22;37062;52.546;13.230;2024-02-16T11:04:09;16.50;99.90
51035;DHT22;37062;52.546;13.230;2024-02-16T11:06:48;16.40;99.90
51035;DHT22;37062;52.546;13.230;2024-02-16T11:09:25;16.50;99.90
51035;DHT22;37062;52.546;13.230;2024-02-16T11:11:54;16.40;99.90
51035;DHT22;37062;52.546;13.230;2024-02-16T11:14:23;16.50;99.90
51035;DHT22;37062;52.546;13.230;2024-02-16T11:16:54;16.50;99.90
51035;DHT22;37062;52.546;13.230;2024-02-16T11:19:23;16.50;99.90
51035;DHT22;37062;52.546;13.230;2024-02-16T11:22:02;16.60;99.90
51035;DHT22;37062;52.546;13.230;2024-02-16T11:24:35;16.60;99.90
51035;DHT22;37062;52.546;13.230;2024-02-16T11:27:03;16.50;99.90
51035;DHT22;37062;52.546;13.230;2024-02-16T11:29:32;16.50;99.90
51035;DHT22;37062;52.546;13.230;2024-02-16T11:32:01;16.50;99.90
51035;DHT22;37062;52.546;13.230;2024-02-16T11:34:30;16.60;99.90
51035;DHT22;37062;52.546;13.230;2024-02-16T11:37:01;16.70;99.90
51035;DHT22;37062;52.546;13.230;2024-02-16T11:39:30;16.80;99.90
51035;DHT22;37062;52.546;13.230;2024-02-16T11:42:02;16.90;99.90
51035;DHT22;37062;52.546;13.230;2024-02-16T11:44:32;17.10;99.90
51035;DHT22;37062;52.546;13.230;2024-02-16T11:47:01;17.30;99.90
51035;DHT22;37062;52.546;13.230;2024-02-16T11:49:30;17.40;99.90
51035;DHT22;37062;52.546;13.230;2024-02-16T11:52:00;17.50;99.90
51035;DHT22;37062;52.546;13.230;2024-02-16T11:54:30;17.70;99.90
51035;DHT22;37062;52.546;13.230;2024-02-16T11:56:59;17.80;99.90
51035;DHT22;37062;52.546;13.230;2024-02-16T11:59:28;17.90;99.90
51035;DHT22;37062;52.546;13.230;2024-02-16T12:01:58;18.00;99.90
51035;DHT22;37062;52.546;13.230;2024-02-16T12:04:27;18.10;99.90
51035;DHT22;37062;52.546;13.230;2024-02-16T12:06:57;18.20;99.90
51035;DHT22;37062;52.546;13.230;2024-02-16T12:09:32;18.30;99.90
51035;DHT22;37062;52.546;13.230;2024-02-16T12:12:04;18.40;99.90
51035;DHT22;37062;52.546;13.230;2024-02-16T12:14:33;18.40;99.90
51035;DHT22;37062;52.546;13.230;2024-02-16T12:17:07;18.40;99.90
51035;DHT22;37062;52.546;13.230;2024-02-16T12:19:35;18.30;99.90
51035;DHT22;37062;52.546;13.230;2024-02-16T12:22:03;18.20;99.90
51035;DHT22;37062;52.546;13.230;2024-02-16T12:24:34;18.20;99.90
51035;DHT22;37062;52.546;13.230;2024-02-16T12:27:03;18.30;99.90
51035;DHT22;37062;52.546;13.230;2024-02-16T12:29:31;18.30;99.90
51035;DHT22;37062;52.546;13.230;2024-02-16T12:31:59;18.40;99.90
51035;DHT22;37062;52.546;13.230;2024-02-16T12:34:28;18.40;99.90
51035;DHT22;37062;52.546;13.230;2024-02-16T12:36:56;18.40;99.90
51035;DHT22;37062;52.546;13.230;2024-02-16T12:39:24;18.40;99.90
51035;DHT22;37062;52.546;13.230;2024-02-16T12:41:54;18.50;99.90
51035;DHT22;37062;52.546;13.230;2024-02-16T12:44:22;18.60;99.90
51035;DHT22;37062;52.546;13.230;2024-02-16T12:46:50;18.60;99.90
51035;DHT22;37062;52.546;13.230;2024-02-16T12:49:18;18.50;99.90
51035;DHT22;37062;52.546;13.230;2024-02-16T12:51:49;18.50;99.90
51035;DHT22;37062;52.546;13.230;2024-02-16T12:54:18;18.50;99.90
51035;DHT22;37062;52.546;13.230;2024-02-16T12:56:46;18.50;99.90
51035;DHT22;37062;52.546;13.230;2024-02-16T12:59:16;18.60;99.90
51035;DHT22;37062;52.546;13.230;2024-02-16T13:01:44;18.60;99.90
51035;DHT22;37062;52.546;13.230;2024-02-16T13:04:14;18.60;99.90
51035;DHT22;37062;52.546;13.230;2024-02-16T13:06:49;18.50;99.90
51035;DHT22;37062;52.546;13.230;2024-02-16T13:09:19;18.50;99.90
51035;DHT22;37062;52.546;13.230;2024-02-16T13:11:48;18.50;99.90
51035;DHT22;37062;52.546;13.230;2024-02-16T13:14:23;18.50;99.90
51035;DHT22;37062;52.546;13.230;2024-02-16T13:16:51;18.50;99.90
51035;DHT22;37062;52.546;13.230;2024-02-16T13:19:19;18.50;99.90
51035;DHT22;37062;52.546;13.230;2024-02-16T13:21:48;18.50;99.90
51035;DHT22;37062;52.546;13.230;2024-02-16T13:24:17;18.50;99.90
51035;DHT22;37062;52.546;13.230;2024-02-16T13:26:46;18.60;99.90
51035;DHT22;37062;52.546;13.230;2024-02-16T13:29:14;18.60;99.90
51035;DHT22;37062;52.546;13.230;2024-02-16T13:31:44;18.60;99.90
51035;DHT22;37062;52.546;13.230;2024-02-16T13:34:12;18.60;99.90
51035;DHT22;37062;52.546;13.230;2024-02-16T13:36:41;18.50;99.90
51035;DHT22;37062;52.546;13.230;2024-02-16T13:39:10;18.40;99.90
51035;DHT22;37062;52.546;13.230;2024-02-16T13:41:41;18.40;99.90
51035;DHT22;37062;52.546;13.230;2024-02-16T13:44:10;18.40;99.90
51035;DHT22;37062;52.546;13.230;2024-02-16T13:46:39;18.40;99.90
51035;DHT22;37062;52.546;13.230;2024-02-16T13:49:08;18.30;99.90
51035;DHT22;37062;52.546;13.230;2024-02-16T13:51:37;18.30;99.90
51035;DHT22;37062;52.546;13.230;2024-02-16T13:54:05;18.30;99.90
51035;DHT22;37062;52.546;13.230;2024-02-16T13:56:33;18.30;99.90
51035;DHT22;37062;52.546;13.230;2024-02-16T13:59:02;18.30;99.90
51035;DHT22;37062;52.546;13.230;2024-02-16T14:01:31;18.20;99.90
51035;DHT22;37062;52.546;13.230;2024-02-16T14:03:59;18.30;99.90
51035;DHT22;37062;52.546;13.230;2024-02-16T14:06:29;18.40;99.90
51035;DHT22;37062;52.546;13.230;2024-02-16T14:09:02;18.40;99.90
51035;DHT22;37062;52.546;13.230;2024-02-16T14:11:46;18.30;99.90
51035;DHT22;37062;52.546;13.230;2024-02-16T14:14:14;18.30;99.90
51035;DHT22;37062;52.546;13.230;2024-02-16T14:16:58;18.30;99.90
51035;DHT22;37062;52.546;13.230;2024-02-16T14:19:26;18.30;99.90
51035;DHT22;37062;52.546;13.230;2024-02-16T14:21:57;18.30;99.90
51035;DHT22;37062;52.546;13.230;2024-02-16T14:24:26;18.30;99.90
51035;DHT22;37062;52.546;13.230;2024-02-16T14:26:54;18.30;99.90
51035;DHT22;37062;52.546;13.230;2024-02-16T14:29:23;18.30;99.90
51035;DHT22;37062;52.546;13.230;2024-02-16T14:31:51;18.40;99.90
51035;DHT22;37062;52.546;13.230;2024-02-16T14:34:20;18.40;99.90
51035;DHT22;37062;52.546;13.230;2024-02-16T14:36:48;18.30;99.90
51035;DHT22;37062;52.546;13.230;2024-02-16T14:39:18;18.30;99.90
51035;DHT22;37062;52.546;13.230;2024-02-16T14:41:46;18.30;99.90
51035;DHT22;37062;52.546;13.230;2024-02-16T14:44:14;18.30;99.90
51035;DHT22;37062;52.546;13.230;2024-02-16T14:46:42;18.30;99.90
51035;DHT22;37062;52.546;13.230;2024-02-16T14:49:11;18.20;99.90
51035;DHT22;37062;52.546;13.230;2024-02-16T14:51:46;18.20;99.90
51035;DHT22;37062;52.546;13.230;2024-02-16T14:54:14;18.10;99.90
51035;DHT22;37062;52.546;13.230;2024-02-16T14:56:44;18.10;99.90
51035;DHT22;37062;52.546;13.230;2024-02-16T14:59:12;18.10;99.90
51035;DHT22;37062;52.546;13.230;2024-02-16T15:01:40;18.10;99.90
51035;DHT22;37062;52.546;13.230;2024-02-16T15:04:09;18.10;99.90
51035;DHT22;37062;52.546;13.230;2024-02-16T15:06:37;18.10;99.90
51035;DHT22;37062;52.546;13.230;2024-02-16T15:09:05;18.10;99.90
51035;DHT22;37062;52.546;13.230;2024-02-16T15:11:34;18.10;99.90
51035;DHT22;37062;52.546;13.230;2024-02-16T15:14:04;18.10;99.90
51035;DHT22;37062;52.546;13.230;2024-02-16T15:16:32;18.10;99.90
51035;DHT22;37062;52.546;13.230;2024-02-16T15:19:01;18.10;99.90
51035;DHT22;37062;52.546;13.230;2024-02-16T15:21:30;18.00;99.90
51035;DHT22;37062;52.546;13.230;2024-02-16T15:23:58;18.00;99.90
51035;DHT22;37062;52.546;13.230;2024-02-16T15:26:27;17.90;99.90
51035;DHT22;37062;52.546;13.230;2024-02-16T15:28:55;17.90;99.90